メインページ
METAR-TAF:

METAR-TAF

空港 :

プンタアレナス, チリ

緯度: 53-00S, 経度: 070-51W, 海抜: 37m

現時点の気象観測

当レポートは32分前の15:00(UTC)に作成
西/北西の風 4kt
気温 -6°C
湿度 86%
気圧 1021 hPa
視程10km以上
1,500メートル以下は雲なし、積乱雲なし

METAR: SCCI 251500Z 29004KT CAVOK M06/M08 Q1021 NOSIG

時間: 11:32 (15:32 UTC)

予報

当レポートは5時間1分前の10:31(UTC)に作成
予報は25日の 12時(UTC)から 26日の 12時(UTC)まで有効
西/北西の風 8kt
視程10km以上
1,500メートル以下は雲なし、積乱雲なし
25日の 12時(UTC)から 25日の 16時(UTC)まで一時的に
変向風 2kt
25日の 13時(UTC)から 25日の 15時(UTC)まで徐々に
北西の風 8kt
25日の 20時(UTC)から 25日の 22時(UTC)まで徐々に
西/北西の風 5kt
26日の 00時(UTC)から 26日の 02時(UTC)まで徐々に
西の風 10kt
26日の 06時(UTC)から 26日の 08時(UTC)まで徐々に
西の風 15kt
高度2000ftの雲はほとんどない

TAF: SCCI 251031Z 2512/2612 29008KT CAVOK TNM08/2512Z TX00/2518Z TEMPO 2512/2516 VRB02KT BECMG 2513/2515 32008KT BECMG 2520/2522 30005KT BECMG 2600/2602 27010KT BECMG 2606/2608 27015KT FEW020

4,000以上の空港の気象観測と天気予報(METAR報とTAF報)

利用可能な観測所は地図上に黄色い丸と赤い丸で示す。

丸の上にカーソルを重ねると観測所名を参照できる。

次にクリックすると気象観測と天気予報を参照できる。

マップの切り替え:黒色「×」印の緑ボタンをクリックして拡大、「-」印の緑ボタンをクリックして縮小、緑色の三角印をクリックして隣りの地図に切り替え


METAR-TAF: